createdAt,value
2017-08-24T00:01:23.899Z,5.40
2017-08-24T00:03:51.440Z,5.37
2017-08-24T00:06:18.949Z,5.40
2017-08-24T00:08:46.449Z,4.73
2017-08-24T00:11:14.011Z,5.47
2017-08-24T00:13:41.535Z,5.13
2017-08-24T00:16:09.104Z,5.10
2017-08-24T00:18:36.627Z,4.90
2017-08-24T00:21:04.127Z,5.37
2017-08-24T00:23:31.701Z,5.03
2017-08-24T00:25:59.263Z,4.80
2017-08-24T00:28:26.817Z,4.70
2017-08-24T00:30:54.347Z,4.93
2017-08-24T00:33:21.894Z,5.07
2017-08-24T00:35:49.413Z,4.97
2017-08-24T00:38:17.314Z,4.70
2017-08-24T00:40:45.776Z,4.70
2017-08-24T00:43:13.340Z,4.90
2017-08-24T00:45:41.431Z,4.83
2017-08-24T00:48:08.953Z,4.63
2017-08-24T00:50:36.479Z,4.87
2017-08-24T00:53:04.015Z,5.10
2017-08-24T00:55:31.575Z,4.83
2017-08-24T00:57:59.084Z,5.00
2017-08-24T01:00:26.643Z,5.07
2017-08-24T01:02:54.164Z,4.93
2017-08-24T01:05:22.083Z,5.13
2017-08-24T01:07:49.629Z,4.30
2017-08-24T01:10:17.164Z,5.30
2017-08-24T01:12:44.719Z,4.77
2017-08-24T01:15:12.247Z,4.90
2017-08-24T01:17:39.819Z,5.00
2017-08-24T01:20:07.879Z,4.70
2017-08-24T01:22:35.412Z,5.60
2017-08-24T01:25:03.061Z,5.13
2017-08-24T01:27:30.630Z,4.73
2017-08-24T01:29:58.122Z,4.80
2017-08-24T01:32:25.611Z,5.03
2017-08-24T01:34:53.165Z,4.80
2017-08-24T01:37:20.663Z,5.33
2017-08-24T01:39:48.220Z,5.30
2017-08-24T01:42:15.756Z,5.20
2017-08-24T01:44:43.284Z,6.43
2017-08-24T01:47:10.835Z,5.50
2017-08-24T01:49:38.353Z,5.47
2017-08-24T01:52:05.895Z,5.93
2017-08-24T01:54:33.433Z,5.00
2017-08-24T01:57:00.930Z,4.70
2017-08-24T01:59:28.457Z,5.43
2017-08-24T02:01:56.805Z,5.07
2017-08-24T02:04:24.304Z,5.33
2017-08-24T02:06:51.821Z,5.17
2017-08-24T02:09:19.432Z,5.63
2017-08-24T02:11:46.976Z,5.90
2017-08-24T02:14:14.497Z,5.90
2017-08-24T02:16:42.044Z,5.07
2017-08-24T02:19:09.542Z,6.50
2017-08-24T02:21:37.057Z,5.80
2017-08-24T02:24:04.619Z,5.73
2017-08-24T02:26:32.120Z,5.23
2017-08-24T02:28:59.658Z,5.40
2017-08-24T02:31:27.202Z,5.87
2017-08-24T02:33:54.705Z,6.37
2017-08-24T02:36:22.238Z,6.50
2017-08-24T02:38:49.730Z,6.23
2017-08-24T02:41:17.291Z,6.23
2017-08-24T02:43:44.806Z,6.73
2017-08-24T02:46:12.331Z,6.60
2017-08-24T02:48:39.888Z,6.70
2017-08-24T02:51:07.399Z,6.53
2017-08-24T02:53:34.951Z,6.90
2017-08-24T02:56:02.466Z,6.17
2017-08-24T02:58:29.977Z,6.40
2017-08-24T03:00:57.551Z,6.73
2017-08-24T03:03:25.055Z,9.10
2017-08-24T03:05:52.616Z,7.40
2017-08-24T03:08:20.106Z,6.77
2017-08-24T03:10:47.617Z,7.00
2017-08-24T03:13:15.182Z,6.90
2017-08-24T03:15:42.690Z,5.90
2017-08-24T03:18:10.216Z,6.83
2017-08-24T03:20:37.752Z,7.90
2017-08-24T03:23:05.259Z,6.43
2017-08-24T03:25:32.799Z,7.10
2017-08-24T03:28:00.336Z,7.27
2017-08-24T03:30:27.886Z,7.90
2017-08-24T03:32:55.411Z,7.23
2017-08-24T03:35:22.959Z,6.97
2017-08-24T03:37:50.462Z,6.77
2017-08-24T03:40:17.967Z,7.47
2017-08-24T03:42:45.506Z,9.03
2017-08-24T03:45:13.681Z,8.43
2017-08-24T03:47:41.202Z,9.60
2017-08-24T03:50:08.750Z,8.40
2017-08-24T03:52:36.284Z,9.63
2017-08-24T03:55:04.181Z,10.70
2017-08-24T03:57:31.758Z,10.80
2017-08-24T03:59:59.261Z,8.40
2017-08-24T04:02:26.775Z,9.27
2017-08-24T04:04:54.334Z,7.70
2017-08-24T04:07:21.910Z,10.37
2017-08-24T04:09:49.439Z,9.50
2017-08-24T04:12:16.959Z,9.87
2017-08-24T04:14:44.525Z,8.47
2017-08-24T04:17:12.040Z,8.60
2017-08-24T04:19:39.599Z,8.50
2017-08-24T04:22:07.150Z,9.80
2017-08-24T04:24:34.718Z,9.17
2017-08-24T04:27:02.322Z,9.17
2017-08-24T04:29:29.887Z,11.30
2017-08-24T04:31:57.398Z,8.73
2017-08-24T04:34:24.914Z,8.70
2017-08-24T04:36:52.456Z,8.33
2017-08-24T04:39:19.972Z,8.50
2017-08-24T04:41:47.511Z,8.23
2017-08-24T04:44:15.066Z,8.67
2017-08-24T04:46:42.712Z,9.40
2017-08-24T04:49:10.794Z,9.03
2017-08-24T04:51:38.370Z,9.33
2017-08-24T04:54:07.093Z,8.33
2017-08-24T04:56:34.600Z,8.20
2017-08-24T04:59:02.173Z,9.13
2017-08-24T05:01:29.714Z,9.30
2017-08-24T05:03:57.249Z,7.73
2017-08-24T05:06:24.784Z,9.27
2017-08-24T05:08:52.293Z,8.90
2017-08-24T05:11:19.833Z,9.07
2017-08-24T05:13:47.398Z,8.40
2017-08-24T05:16:14.916Z,8.80
2017-08-24T05:18:42.446Z,9.10
2017-08-24T05:21:09.995Z,9.07
2017-08-24T05:23:37.537Z,9.40
2017-08-24T05:26:05.059Z,8.97
2017-08-24T05:28:32.602Z,8.80
2017-08-24T05:31:00.140Z,9.30
2017-08-24T05:33:27.653Z,9.90
2017-08-24T05:35:55.227Z,9.83
2017-08-24T05:38:22.820Z,9.07
2017-08-24T05:40:50.342Z,9.10
2017-08-24T05:43:17.897Z,10.00
2017-08-24T05:45:45.423Z,9.67
2017-08-24T05:48:13.558Z,9.80
2017-08-24T05:50:41.051Z,10.53
2017-08-24T05:53:09.427Z,10.07
2017-08-24T05:55:36.982Z,10.43
2017-08-24T05:58:04.527Z,9.47
2017-08-24T06:00:32.087Z,10.07
2017-08-24T06:02:59.609Z,12.10
2017-08-24T06:05:27.150Z,10.33
2017-08-24T06:07:54.723Z,10.83
2017-08-24T06:10:22.237Z,10.80
2017-08-24T06:12:50.359Z,12.63
2017-08-24T06:15:17.873Z,11.30
2017-08-24T06:17:45.378Z,11.70
2017-08-24T06:20:12.940Z,12.97
2017-08-24T06:22:40.459Z,12.43
2017-08-24T06:25:09.282Z,11.77
2017-08-24T06:27:36.828Z,11.97
2017-08-24T06:30:04.553Z,11.83
2017-08-24T06:32:32.175Z,11.40
2017-08-24T06:34:59.733Z,12.00
2017-08-24T06:37:27.239Z,10.70
2017-08-24T06:39:54.791Z,13.30
2017-08-24T06:42:22.321Z,11.30
2017-08-24T06:44:50.623Z,10.47
2017-08-24T06:47:18.198Z,13.33
2017-08-24T06:49:45.729Z,11.17
2017-08-24T06:52:13.793Z,13.63
2017-08-24T06:54:42.142Z,13.40
2017-08-24T06:57:10.252Z,10.80
2017-08-24T06:59:37.803Z,28.97
2017-08-24T07:02:05.382Z,17.47
2017-08-24T07:04:32.912Z,13.17
2017-08-24T07:07:00.497Z,12.70
2017-08-24T07:09:28.105Z,11.87
2017-08-24T07:11:55.633Z,11.83
2017-08-24T07:14:23.207Z,11.73
2017-08-24T07:16:50.810Z,11.40
2017-08-24T07:19:18.454Z,11.23
2017-08-24T07:21:46.129Z,10.37
2017-08-24T07:24:14.890Z,11.77
2017-08-24T07:26:42.461Z,11.97
2017-08-24T07:29:10.059Z,12.50
2017-08-24T07:31:37.707Z,11.80
2017-08-24T07:34:05.257Z,11.83
2017-08-24T07:36:32.836Z,12.90
2017-08-24T07:39:00.405Z,13.17
2017-08-24T07:41:28.364Z,11.43
2017-08-24T07:43:55.975Z,10.70
2017-08-24T07:46:23.508Z,11.30
2017-08-24T07:48:51.080Z,11.70
2017-08-24T07:51:19.627Z,11.43
2017-08-24T07:53:47.198Z,12.50
2017-08-24T07:56:14.801Z,12.00
2017-08-24T07:58:42.341Z,10.47
2017-08-24T08:01:09.894Z,10.20
2017-08-24T08:03:37.460Z,11.10
2017-08-24T08:06:05.063Z,11.10
2017-08-24T08:08:32.621Z,12.87
2017-08-24T08:11:00.192Z,12.27
2017-08-24T08:13:27.716Z,12.10
2017-08-24T08:15:55.240Z,12.03
2017-08-24T08:18:23.775Z,13.10
2017-08-24T08:20:51.399Z,14.97
2017-08-24T08:23:19.123Z,14.00
2017-08-24T08:25:46.659Z,14.97
2017-08-24T08:28:14.237Z,14.07
2017-08-24T08:30:41.800Z,15.67
2017-08-24T08:33:09.388Z,11.70
2017-08-24T08:35:36.903Z,13.17
2017-08-24T08:38:04.454Z,13.13
2017-08-24T08:40:32.179Z,10.77
2017-08-24T08:42:59.774Z,10.70
2017-08-24T08:45:27.408Z,11.30
2017-08-24T08:47:55.000Z,10.30
2017-08-24T08:50:22.531Z,9.27
2017-08-24T08:52:50.108Z,8.90
2017-08-24T08:55:17.633Z,7.63
2017-08-24T08:57:45.889Z,12.50
2017-08-24T09:00:13.822Z,9.83
2017-08-24T09:02:41.366Z,9.07
2017-08-24T09:05:10.000Z,9.43
2017-08-24T09:07:37.550Z,19.17
2017-08-24T09:10:05.859Z,11.07
2017-08-24T09:12:33.412Z,7.60
2017-08-24T09:15:00.973Z,7.67
2017-08-24T09:17:28.490Z,8.00
2017-08-24T09:19:56.140Z,7.80
2017-08-24T09:22:23.796Z,6.47
2017-08-24T09:24:51.298Z,6.73
2017-08-24T09:27:18.953Z,7.57
2017-08-24T09:29:46.586Z,25.77
2017-08-24T09:32:14.234Z,16.10
2017-08-24T09:34:41.813Z,8.10
2017-08-24T09:37:09.336Z,8.80
2017-08-24T09:39:36.931Z,7.10
2017-08-24T09:42:04.451Z,11.83
2017-08-24T09:44:32.067Z,10.70
2017-08-24T09:46:59.604Z,6.90
2017-08-24T09:49:27.175Z,6.53
2017-08-24T09:51:54.730Z,16.47
2017-08-24T09:54:22.245Z,14.27
2017-08-24T09:56:49.846Z,23.53
2017-08-24T09:59:17.376Z,12.00
2017-08-24T10:01:44.897Z,8.90
2017-08-24T10:04:12.460Z,6.00
2017-08-24T10:06:40.093Z,6.30
2017-08-24T10:09:07.709Z,8.20
2017-08-24T10:11:35.326Z,7.10
2017-08-24T10:14:02.939Z,19.63
2017-08-24T10:16:30.468Z,40.40
2017-08-24T10:18:58.025Z,47.90
2017-08-24T10:21:25.582Z,26.33
2017-08-24T10:23:53.121Z,11.30
2017-08-24T10:26:20.698Z,7.47
2017-08-24T10:28:48.263Z,5.83
2017-08-24T10:31:15.819Z,5.90
2017-08-24T10:33:43.377Z,5.60
2017-08-24T10:36:10.939Z,4.77
2017-08-24T10:38:38.433Z,5.40
2017-08-24T10:41:05.980Z,4.80
2017-08-24T10:43:33.491Z,5.30
2017-08-24T10:46:01.751Z,4.80
2017-08-24T10:48:29.288Z,5.67
2017-08-24T10:50:56.843Z,4.40
2017-08-24T10:53:24.422Z,4.67
2017-08-24T10:55:51.936Z,4.97
2017-08-24T10:58:19.503Z,4.10
2017-08-24T11:00:47.090Z,4.50
2017-08-24T11:03:15.542Z,5.00
2017-08-24T11:05:43.123Z,4.50
2017-08-24T11:08:11.615Z,5.23
2017-08-24T11:10:39.342Z,5.20
2017-08-24T11:13:06.966Z,4.50
2017-08-24T11:15:34.523Z,6.00
2017-08-24T11:18:02.068Z,4.90
2017-08-24T11:20:30.400Z,5.20
2017-08-24T11:22:57.907Z,4.03
2017-08-24T11:25:25.430Z,4.10
2017-08-24T11:27:53.838Z,4.53
2017-08-24T11:30:22.677Z,4.47
2017-08-24T11:32:50.281Z,4.50
2017-08-24T11:35:17.862Z,4.67
2017-08-24T11:37:46.184Z,4.57
2017-08-24T11:40:13.737Z,4.50
2017-08-24T11:42:41.310Z,3.90
2017-08-24T11:45:08.831Z,4.47
2017-08-24T11:47:36.500Z,4.67
2017-08-24T11:50:04.690Z,5.30
2017-08-24T11:52:32.311Z,5.17
2017-08-24T11:54:59.853Z,6.40
2017-08-24T11:57:27.377Z,5.17
2017-08-24T11:59:54.986Z,4.90
2017-08-24T12:02:22.475Z,5.37
2017-08-24T12:04:51.416Z,5.60
2017-08-24T12:07:18.991Z,4.87
2017-08-24T12:09:46.550Z,3.97
2017-08-24T12:12:14.180Z,4.60
2017-08-24T12:14:41.701Z,4.07
2017-08-24T12:17:10.771Z,4.57
2017-08-24T12:19:38.319Z,4.70
2017-08-24T12:22:05.862Z,4.40
2017-08-24T12:24:33.400Z,4.70
2017-08-24T12:27:00.975Z,4.40
2017-08-24T12:29:28.519Z,3.97
2017-08-24T12:31:56.082Z,4.47
2017-08-24T12:34:24.502Z,4.90
2017-08-24T12:36:52.003Z,5.40
2017-08-24T12:39:19.532Z,4.80
2017-08-24T12:41:47.100Z,7.00
2017-08-24T12:44:14.613Z,5.40
2017-08-24T12:46:42.200Z,4.43
2017-08-24T12:49:09.757Z,4.83
2017-08-24T12:51:38.138Z,4.80
2017-08-24T12:54:05.729Z,5.33
2017-08-24T12:56:33.241Z,5.53
2017-08-24T12:59:00.756Z,5.13
2017-08-24T13:01:28.795Z,5.90
2017-08-24T13:03:56.376Z,4.43
2017-08-24T13:06:23.952Z,5.00
2017-08-24T13:08:51.499Z,4.80
2017-08-24T13:11:19.218Z,6.30
2017-08-24T13:13:46.768Z,5.10
2017-08-24T13:16:14.323Z,7.70
2017-08-24T13:18:41.916Z,5.03
2017-08-24T13:21:09.505Z,6.97
2017-08-24T13:23:37.142Z,5.87
2017-08-24T13:26:04.647Z,5.00
2017-08-24T13:28:32.159Z,5.30
2017-08-24T13:31:00.899Z,5.47
2017-08-24T13:33:28.439Z,5.77
2017-08-24T13:35:55.974Z,8.33
2017-08-24T13:38:24.341Z,5.37
2017-08-24T13:40:51.873Z,4.27
2017-08-24T13:43:19.513Z,5.20
2017-08-24T13:45:47.043Z,5.40
2017-08-24T13:48:14.553Z,5.70
2017-08-24T13:50:43.100Z,4.90
2017-08-24T13:53:10.639Z,4.97
2017-08-24T13:55:38.189Z,5.30
2017-08-24T13:58:05.787Z,5.10
2017-08-24T14:00:33.321Z,4.17
2017-08-24T14:03:01.347Z,4.50
2017-08-24T14:05:28.861Z,4.60
2017-08-24T14:07:56.367Z,4.40
2017-08-24T14:10:23.921Z,4.20
2017-08-24T14:12:51.419Z,4.20
2017-08-24T14:15:18.952Z,4.00
2017-08-24T14:17:46.489Z,4.03
2017-08-24T14:20:14.005Z,3.90
2017-08-24T14:22:41.562Z,4.43
2017-08-24T14:25:09.820Z,4.07
2017-08-24T14:27:37.334Z,4.60
2017-08-24T14:30:05.248Z,5.00
2017-08-24T14:32:32.754Z,3.90
2017-08-24T14:35:00.261Z,4.80
2017-08-24T14:37:27.822Z,4.50
2017-08-24T14:39:55.349Z,4.80
2017-08-24T14:42:22.918Z,4.10
2017-08-24T14:44:50.445Z,4.60
2017-08-24T14:47:17.970Z,5.03
2017-08-24T14:49:45.548Z,5.33
2017-08-24T14:52:13.836Z,4.10
2017-08-24T14:54:41.359Z,4.80
2017-08-24T14:57:08.939Z,4.50
2017-08-24T14:59:36.451Z,5.10
2017-08-24T15:02:03.971Z,5.40
2017-08-24T15:04:31.512Z,4.90
2017-08-24T15:06:59.095Z,6.37
2017-08-24T15:09:26.624Z,4.80
2017-08-24T15:11:54.186Z,5.23
2017-08-24T15:14:22.532Z,4.70
2017-08-24T15:16:50.094Z,5.50
2017-08-24T15:19:17.601Z,5.50
2017-08-24T15:21:45.155Z,7.00
2017-08-24T15:24:12.668Z,6.50
2017-08-24T15:26:40.238Z,6.70
2017-08-24T15:29:07.741Z,7.00
2017-08-24T15:31:35.249Z,6.43
2017-08-24T15:34:02.820Z,5.47
2017-08-24T15:36:30.316Z,6.80
2017-08-24T15:38:57.829Z,6.20
2017-08-24T15:41:25.372Z,6.83
2017-08-24T15:43:52.891Z,5.73
2017-08-24T15:46:20.408Z,5.63
2017-08-24T15:48:47.955Z,5.90
2017-08-24T15:51:15.512Z,5.40
2017-08-24T15:53:43.055Z,4.80
2017-08-24T15:56:10.568Z,5.47
2017-08-24T15:58:38.066Z,4.80
2017-08-24T16:01:05.792Z,5.20
2017-08-24T16:03:33.327Z,5.70
2017-08-24T16:06:00.890Z,4.30
2017-08-24T16:08:28.442Z,4.90
2017-08-24T16:10:55.963Z,5.10
2017-08-24T16:13:23.468Z,5.20
2017-08-24T16:15:51.177Z,5.70
2017-08-24T16:18:18.695Z,5.80
2017-08-24T16:20:46.195Z,5.90
2017-08-24T16:23:13.740Z,5.67
2017-08-24T16:25:41.262Z,4.87
2017-08-24T16:28:08.764Z,6.67
2017-08-24T16:30:36.327Z,7.77
2017-08-24T16:33:03.851Z,6.50
2017-08-24T16:35:31.382Z,5.53
2017-08-24T16:37:58.896Z,5.60
2017-08-24T16:40:26.452Z,6.10
2017-08-24T16:42:54.020Z,6.57
2017-08-24T16:45:21.520Z,6.37
2017-08-24T16:47:49.046Z,5.40
2017-08-24T16:50:16.599Z,5.20
2017-08-24T16:52:44.865Z,5.00
2017-08-24T16:55:12.380Z,5.43
2017-08-24T16:57:39.960Z,4.97
2017-08-24T17:00:07.518Z,5.53
2017-08-24T17:02:35.075Z,6.70
2017-08-24T17:05:02.930Z,6.13
2017-08-24T17:07:30.435Z,5.87
2017-08-24T17:09:58.074Z,5.33
2017-08-24T17:12:25.618Z,4.80
2017-08-24T17:14:53.124Z,6.00
2017-08-24T17:17:20.656Z,5.67
2017-08-24T17:19:48.178Z,5.03
2017-08-24T17:22:15.740Z,4.83
2017-08-24T17:24:43.304Z,5.10
2017-08-24T17:27:10.881Z,5.47
2017-08-24T17:29:38.400Z,5.37
2017-08-24T17:32:05.920Z,5.10
2017-08-24T17:34:34.604Z,5.83
2017-08-24T17:37:02.111Z,4.60
2017-08-24T17:39:29.734Z,5.77
2017-08-24T17:41:57.323Z,5.13
2017-08-24T17:44:24.830Z,5.30
2017-08-24T17:46:52.794Z,5.70
2017-08-24T17:49:20.344Z,6.23
2017-08-24T17:51:47.830Z,5.83
2017-08-24T17:54:17.073Z,6.43
2017-08-24T17:56:44.574Z,5.40
2017-08-24T17:59:12.225Z,5.77
2017-08-24T18:01:39.849Z,6.20
2017-08-24T18:04:07.525Z,7.20
2017-08-24T18:06:35.044Z,7.07
2017-08-24T18:09:02.649Z,6.63
2017-08-24T18:11:30.295Z,6.87
2017-08-24T18:13:57.841Z,6.37
2017-08-24T18:16:25.457Z,6.17
2017-08-24T18:18:52.974Z,7.03
2017-08-24T18:21:20.502Z,6.43
2017-08-24T18:23:48.092Z,6.70
2017-08-24T18:26:15.642Z,6.40
2017-08-24T18:28:43.179Z,6.47
2017-08-24T18:31:10.761Z,5.70
2017-08-24T18:33:38.280Z,6.00
2017-08-24T18:36:05.816Z,7.50
2017-08-24T18:38:33.550Z,6.70
2017-08-24T18:41:01.051Z,7.43
2017-08-24T18:43:28.572Z,7.13
2017-08-24T18:45:56.113Z,6.87
2017-08-24T18:48:23.621Z,7.30
2017-08-24T18:50:51.223Z,8.20
2017-08-24T18:53:18.730Z,6.37
2017-08-24T18:55:46.311Z,6.70
2017-08-24T18:58:13.848Z,6.60
2017-08-24T19:00:41.371Z,6.40
2017-08-24T19:03:08.903Z,6.57
2017-08-24T19:05:36.470Z,5.80
2017-08-24T19:08:03.984Z,6.10
2017-08-24T19:10:31.529Z,5.60
2017-08-24T19:12:59.040Z,5.87
2017-08-24T19:15:26.574Z,7.03
2017-08-24T19:17:54.150Z,6.97
2017-08-24T19:20:21.710Z,7.20
2017-08-24T19:22:49.206Z,7.80
2017-08-24T19:25:17.171Z,7.60
2017-08-24T19:27:44.890Z,6.90
2017-08-24T19:30:12.412Z,7.00
2017-08-24T19:32:39.983Z,7.40
2017-08-24T19:35:07.477Z,7.40
2017-08-24T19:37:34.977Z,7.53
2017-08-24T19:40:02.611Z,7.67
2017-08-24T19:42:30.177Z,8.10
2017-08-24T19:44:57.695Z,6.60
2017-08-24T19:47:25.241Z,7.57
2017-08-24T19:49:53.069Z,7.53
2017-08-24T19:52:21.335Z,8.17
2017-08-24T19:54:48.947Z,7.30
2017-08-24T19:57:16.576Z,7.67
2017-08-24T19:59:44.115Z,6.83
2017-08-24T20:02:11.656Z,8.90
2017-08-24T20:04:39.236Z,8.90
2017-08-24T20:07:07.514Z,8.50
2017-08-24T20:09:35.045Z,9.60
2017-08-24T20:12:03.078Z,10.37
2017-08-24T20:14:30.621Z,10.07
2017-08-24T20:16:58.145Z,12.07
2017-08-24T20:19:25.688Z,10.97
2017-08-24T20:21:53.326Z,12.10
2017-08-24T20:24:20.838Z,11.73
2017-08-24T20:26:48.347Z,9.77
2017-08-24T20:29:15.991Z,10.40
2017-08-24T20:31:43.597Z,11.33
2017-08-24T20:34:11.111Z,9.73
2017-08-24T20:36:38.745Z,11.10
2017-08-24T20:39:06.347Z,10.50
2017-08-24T20:41:33.887Z,10.77
2017-08-24T20:44:01.489Z,9.50
2017-08-24T20:46:30.023Z,8.20
2017-08-24T20:48:57.620Z,9.77
2017-08-24T20:51:25.200Z,9.47
2017-08-24T20:53:52.688Z,9.77
2017-08-24T20:56:20.190Z,9.23
2017-08-24T20:58:47.727Z,9.90
2017-08-24T21:01:15.285Z,10.13
2017-08-24T21:03:42.832Z,9.53
2017-08-24T21:06:11.483Z,9.90
2017-08-24T21:08:39.029Z,9.90
2017-08-24T21:11:06.565Z,11.60
2017-08-24T21:13:34.144Z,10.07
2017-08-24T21:16:01.684Z,10.60
2017-08-24T21:18:29.196Z,11.30
2017-08-24T21:20:56.764Z,9.40
2017-08-24T21:23:24.352Z,9.53
2017-08-24T21:25:51.881Z,9.27
2017-08-24T21:28:19.442Z,9.77
2017-08-24T21:30:46.953Z,9.97
2017-08-24T21:33:14.501Z,11.03
2017-08-24T21:35:42.761Z,10.23
2017-08-24T21:38:10.692Z,11.43
2017-08-24T21:40:38.263Z,9.90
2017-08-24T21:43:05.776Z,9.30
2017-08-24T21:45:33.297Z,9.17
2017-08-24T21:48:01.218Z,9.73
2017-08-24T21:50:28.803Z,11.90
2017-08-24T21:52:56.512Z,11.97
2017-08-24T21:55:24.048Z,11.00
2017-08-24T21:57:51.590Z,10.57
2017-08-24T22:00:19.114Z,11.90
2017-08-24T22:02:47.263Z,11.40
2017-08-24T22:05:14.791Z,10.33
2017-08-24T22:07:42.430Z,10.60
2017-08-24T22:10:09.983Z,10.90
2017-08-24T22:12:37.486Z,10.00
2017-08-24T22:15:05.884Z,8.73
2017-08-24T22:17:33.388Z,10.87
2017-08-24T22:20:00.887Z,12.20
2017-08-24T22:22:28.455Z,12.50
2017-08-24T22:24:56.028Z,12.97
2017-08-24T22:27:23.527Z,12.63
2017-08-24T22:29:51.051Z,11.20
2017-08-24T22:32:18.624Z,11.43
2017-08-24T22:34:46.117Z,10.80
2017-08-24T22:37:14.389Z,10.40
2017-08-24T22:39:41.941Z,8.27
2017-08-24T22:42:09.444Z,8.90
2017-08-24T22:44:37.247Z,13.00
2017-08-24T22:47:04.804Z,10.47
2017-08-24T22:49:32.341Z,10.60
2017-08-24T22:51:59.903Z,10.20
2017-08-24T22:54:32.954Z,11.30
2017-08-24T22:57:06.196Z,10.40
2017-08-24T22:59:39.371Z,10.13
2017-08-24T23:02:12.487Z,9.93
2017-08-24T23:04:40.083Z,9.60
2017-08-24T23:07:07.592Z,10.23
2017-08-24T23:09:35.101Z,11.80
2017-08-24T23:12:02.689Z,10.87
2017-08-24T23:14:30.257Z,11.37
2017-08-24T23:16:57.817Z,9.40
2017-08-24T23:19:25.925Z,10.70
2017-08-24T23:21:53.425Z,11.37
2017-08-24T23:24:20.981Z,11.13
2017-08-24T23:26:48.522Z,8.97
2017-08-24T23:29:16.094Z,8.67
2017-08-24T23:31:43.599Z,7.33
2017-08-24T23:34:11.146Z,9.13
2017-08-24T23:36:38.645Z,7.53
2017-08-24T23:39:06.188Z,6.53
2017-08-24T23:41:33.765Z,7.80
2017-08-24T23:44:01.338Z,7.43
2017-08-24T23:46:28.840Z,9.03
2017-08-24T23:48:56.346Z,7.70
2017-08-24T23:51:23.881Z,7.60
2017-08-24T23:53:51.399Z,6.53
2017-08-24T23:56:18.887Z,6.47
2017-08-24T23:58:46.433Z,5.80
